sensor_id;sensor_type;location;lat;lon;timestamp;P1;durP1;ratioP1;P2;durP2;ratioP2
55312;SDS011;46892;45.668;11.756;2023-04-15T00:01:18;4.83;;;3.67;;
55312;SDS011;46892;45.668;11.756;2023-04-15T00:03:44;5.97;;;3.80;;
55312;SDS011;46892;45.668;11.756;2023-04-15T00:06:11;5.37;;;3.20;;
55312;SDS011;46892;45.668;11.756;2023-04-15T00:08:37;4.57;;;3.10;;
55312;SDS011;46892;45.668;11.756;2023-04-15T00:11:03;5.97;;;3.50;;
55312;SDS011;46892;45.668;11.756;2023-04-15T00:13:30;4.33;;;3.07;;
55312;SDS011;46892;45.668;11.756;2023-04-15T00:15:56;5.60;;;3.20;;
55312;SDS011;46892;45.668;11.756;2023-04-15T00:18:23;4.63;;;2.87;;
55312;SDS011;46892;45.668;11.756;2023-04-15T00:20:48;4.37;;;3.10;;
55312;SDS011;46892;45.668;11.756;2023-04-15T00:23:14;3.83;;;2.77;;
55312;SDS011;46892;45.668;11.756;2023-04-15T00:25:40;4.33;;;2.57;;
55312;SDS011;46892;45.668;11.756;2023-04-15T00:28:05;4.40;;;2.87;;
55312;SDS011;46892;45.668;11.756;2023-04-15T00:30:31;5.83;;;3.27;;
55312;SDS011;46892;45.668;11.756;2023-04-15T00:32:57;3.27;;;2.60;;
55312;SDS011;46892;45.668;11.756;2023-04-15T00:35:23;3.87;;;2.70;;
55312;SDS011;46892;45.668;11.756;2023-04-15T00:37:49;4.50;;;2.70;;
55312;SDS011;46892;45.668;11.756;2023-04-15T00:40:16;5.53;;;3.43;;
55312;SDS011;46892;45.668;11.756;2023-04-15T00:42:43;4.10;;;2.97;;
55312;SDS011;46892;45.668;11.756;2023-04-15T00:45:09;3.30;;;2.53;;
55312;SDS011;46892;45.668;11.756;2023-04-15T00:47:36;3.97;;;2.83;;
55312;SDS011;46892;45.668;11.756;2023-04-15T00:50:03;5.20;;;2.97;;
55312;SDS011;46892;45.668;11.756;2023-04-15T00:52:29;4.50;;;3.20;;
55312;SDS011;46892;45.668;11.756;2023-04-15T00:54:55;5.67;;;3.27;;
55312;SDS011;46892;45.668;11.756;2023-04-15T00:57:20;4.47;;;3.10;;
55312;SDS011;46892;45.668;11.756;2023-04-15T00:59:47;6.97;;;3.90;;
55312;SDS011;46892;45.668;11.756;2023-04-15T01:02:13;5.57;;;3.60;;
55312;SDS011;46892;45.668;11.756;2023-04-15T01:04:39;4.53;;;3.30;;
55312;SDS011;46892;45.668;11.756;2023-04-15T01:07:05;3.83;;;3.10;;
55312;SDS011;46892;45.668;11.756;2023-04-15T01:09:31;5.87;;;3.43;;
55312;SDS011;46892;45.668;11.756;2023-04-15T01:11:57;5.87;;;3.47;;
55312;SDS011;46892;45.668;11.756;2023-04-15T01:14:23;5.17;;;3.80;;
55312;SDS011;46892;45.668;11.756;2023-04-15T01:16:49;8.07;;;4.03;;
55312;SDS011;46892;45.668;11.756;2023-04-15T01:19:17;5.60;;;3.83;;
55312;SDS011;46892;45.668;11.756;2023-04-15T01:21:44;7.20;;;4.00;;
55312;SDS011;46892;45.668;11.756;2023-04-15T01:24:10;6.60;;;3.87;;
55312;SDS011;46892;45.668;11.756;2023-04-15T01:26:37;6.73;;;4.30;;
55312;SDS011;46892;45.668;11.756;2023-04-15T01:29:03;6.20;;;3.83;;
55312;SDS011;46892;45.668;11.756;2023-04-15T01:31:29;5.87;;;3.70;;
55312;SDS011;46892;45.668;11.756;2023-04-15T01:33:55;5.13;;;3.70;;
55312;SDS011;46892;45.668;11.756;2023-04-15T01:36:20;6.00;;;3.77;;
55312;SDS011;46892;45.668;11.756;2023-04-15T01:38:46;5.63;;;3.70;;
55312;SDS011;46892;45.668;11.756;2023-04-15T01:41:12;6.07;;;3.30;;
55312;SDS011;46892;45.668;11.756;2023-04-15T01:43:38;4.00;;;2.90;;
55312;SDS011;46892;45.668;11.756;2023-04-15T01:46:04;4.20;;;2.80;;
55312;SDS011;46892;45.668;11.756;2023-04-15T01:48:31;4.93;;;3.23;;
55312;SDS011;46892;45.668;11.756;2023-04-15T01:50:57;5.07;;;3.10;;
55312;SDS011;46892;45.668;11.756;2023-04-15T01:53:26;4.63;;;3.40;;
55312;SDS011;46892;45.668;11.756;2023-04-15T01:55:52;4.63;;;3.57;;
55312;SDS011;46892;45.668;11.756;2023-04-15T01:58:19;4.83;;;3.33;;
55312;SDS011;46892;45.668;11.756;2023-04-15T02:00:45;7.97;;;3.50;;
55312;SDS011;46892;45.668;11.756;2023-04-15T02:03:11;4.43;;;3.10;;
55312;SDS011;46892;45.668;11.756;2023-04-15T02:05:37;5.17;;;3.17;;
55312;SDS011;46892;45.668;11.756;2023-04-15T02:08:03;4.30;;;2.90;;
55312;SDS011;46892;45.668;11.756;2023-04-15T02:10:28;4.07;;;2.77;;
55312;SDS011;46892;45.668;11.756;2023-04-15T02:12:54;4.07;;;2.60;;
55312;SDS011;46892;45.668;11.756;2023-04-15T02:15:20;3.87;;;2.83;;
55312;SDS011;46892;45.668;11.756;2023-04-15T02:17:46;4.10;;;2.60;;
55312;SDS011;46892;45.668;11.756;2023-04-15T02:20:15;5.37;;;2.73;;
55312;SDS011;46892;45.668;11.756;2023-04-15T02:22:41;4.40;;;2.53;;
55312;SDS011;46892;45.668;11.756;2023-04-15T02:25:07;4.23;;;2.70;;
55312;SDS011;46892;45.668;11.756;2023-04-15T02:27:34;4.07;;;2.63;;
55312;SDS011;46892;45.668;11.756;2023-04-15T02:30:00;4.13;;;2.63;;
55312;SDS011;46892;45.668;11.756;2023-04-15T02:32:26;5.03;;;2.50;;
55312;SDS011;46892;45.668;11.756;2023-04-15T02:34:52;3.70;;;2.40;;
55312;SDS011;46892;45.668;11.756;2023-04-15T02:37:18;5.27;;;2.50;;
55312;SDS011;46892;45.668;11.756;2023-04-15T02:39:45;4.77;;;2.53;;
55312;SDS011;46892;45.668;11.756;2023-04-15T02:42:10;4.37;;;2.70;;
55312;SDS011;46892;45.668;11.756;2023-04-15T02:44:37;4.27;;;2.93;;
55312;SDS011;46892;45.668;11.756;2023-04-15T02:47:02;4.40;;;2.47;;
55312;SDS011;46892;45.668;11.756;2023-04-15T02:49:31;4.60;;;2.60;;
55312;SDS011;46892;45.668;11.756;2023-04-15T02:51:56;3.90;;;2.37;;
55312;SDS011;46892;45.668;11.756;2023-04-15T02:54:24;3.00;;;2.13;;
55312;SDS011;46892;45.668;11.756;2023-04-15T02:56:52;3.83;;;2.53;;
55312;SDS011;46892;45.668;11.756;2023-04-15T02:59:21;5.00;;;2.63;;
55312;SDS011;46892;45.668;11.756;2023-04-15T03:01:47;3.40;;;2.47;;
55312;SDS011;46892;45.668;11.756;2023-04-15T03:04:12;3.13;;;2.30;;
55312;SDS011;46892;45.668;11.756;2023-04-15T03:06:38;3.70;;;2.70;;
55312;SDS011;46892;45.668;11.756;2023-04-15T03:09:04;3.77;;;2.47;;
55312;SDS011;46892;45.668;11.756;2023-04-15T03:11:29;3.50;;;2.17;;
55312;SDS011;46892;45.668;11.756;2023-04-15T03:13:55;4.73;;;2.30;;
55312;SDS011;46892;45.668;11.756;2023-04-15T03:16:22;3.40;;;2.50;;
55312;SDS011;46892;45.668;11.756;2023-04-15T03:18:48;4.70;;;2.90;;
55312;SDS011;46892;45.668;11.756;2023-04-15T03:21:13;4.63;;;2.50;;
55312;SDS011;46892;45.668;11.756;2023-04-15T03:23:39;3.83;;;2.90;;
55312;SDS011;46892;45.668;11.756;2023-04-15T03:26:05;4.20;;;2.90;;
55312;SDS011;46892;45.668;11.756;2023-04-15T03:28:30;3.40;;;2.80;;
55312;SDS011;46892;45.668;11.756;2023-04-15T03:30:57;6.17;;;2.80;;
55312;SDS011;46892;45.668;11.756;2023-04-15T03:33:22;4.57;;;2.47;;
55312;SDS011;46892;45.668;11.756;2023-04-15T03:35:49;5.33;;;2.73;;
55312;SDS011;46892;45.668;11.756;2023-04-15T03:38:15;3.67;;;2.20;;
55312;SDS011;46892;45.668;11.756;2023-04-15T03:40:41;4.17;;;2.80;;
55312;SDS011;46892;45.668;11.756;2023-04-15T03:43:07;3.77;;;2.90;;
55312;SDS011;46892;45.668;11.756;2023-04-15T03:45:32;5.10;;;3.00;;
55312;SDS011;46892;45.668;11.756;2023-04-15T03:47:58;4.57;;;2.67;;
55312;SDS011;46892;45.668;11.756;2023-04-15T03:50:24;3.97;;;2.23;;
55312;SDS011;46892;45.668;11.756;2023-04-15T03:52:50;3.73;;;2.73;;
55312;SDS011;46892;45.668;11.756;2023-04-15T03:55:15;5.97;;;2.90;;
55312;SDS011;46892;45.668;11.756;2023-04-15T03:57:41;5.23;;;3.10;;
55312;SDS011;46892;45.668;11.756;2023-04-15T04:00:07;4.13;;;2.57;;
55312;SDS011;46892;45.668;11.756;2023-04-15T04:02:34;4.47;;;2.73;;
55312;SDS011;46892;45.668;11.756;2023-04-15T04:05:00;5.23;;;3.17;;
55312;SDS011;46892;45.668;11.756;2023-04-15T04:07:26;4.97;;;3.00;;
55312;SDS011;46892;45.668;11.756;2023-04-15T04:09:51;5.23;;;3.17;;
55312;SDS011;46892;45.668;11.756;2023-04-15T04:12:17;5.43;;;3.20;;
55312;SDS011;46892;45.668;11.756;2023-04-15T04:14:43;4.20;;;2.97;;
55312;SDS011;46892;45.668;11.756;2023-04-15T04:17:09;6.00;;;3.57;;
55312;SDS011;46892;45.668;11.756;2023-04-15T04:19:35;6.90;;;3.50;;
55312;SDS011;46892;45.668;11.756;2023-04-15T04:22:01;5.77;;;3.53;;
55312;SDS011;46892;45.668;11.756;2023-04-15T04:24:27;5.20;;;3.70;;
55312;SDS011;46892;45.668;11.756;2023-04-15T04:26:52;5.40;;;3.60;;
55312;SDS011;46892;45.668;11.756;2023-04-15T04:29:18;5.93;;;3.30;;
55312;SDS011;46892;45.668;11.756;2023-04-15T04:31:44;5.67;;;3.53;;
55312;SDS011;46892;45.668;11.756;2023-04-15T04:34:10;4.87;;;3.63;;
55312;SDS011;46892;45.668;11.756;2023-04-15T04:36:36;5.33;;;3.60;;
55312;SDS011;46892;45.668;11.756;2023-04-15T04:39:02;4.40;;;3.20;;
55312;SDS011;46892;45.668;11.756;2023-04-15T04:41:28;5.40;;;3.57;;
55312;SDS011;46892;45.668;11.756;2023-04-15T04:43:53;5.77;;;3.10;;
55312;SDS011;46892;45.668;11.756;2023-04-15T04:46:19;4.53;;;2.80;;
55312;SDS011;46892;45.668;11.756;2023-04-15T04:48:45;3.77;;;2.57;;
55312;SDS011;46892;45.668;11.756;2023-04-15T04:51:11;3.60;;;2.60;;
55312;SDS011;46892;45.668;11.756;2023-04-15T04:53:37;4.20;;;2.50;;
55312;SDS011;46892;45.668;11.756;2023-04-15T04:56:03;3.50;;;2.53;;
55312;SDS011;46892;45.668;11.756;2023-04-15T04:58:28;3.43;;;2.20;;
55312;SDS011;46892;45.668;11.756;2023-04-15T05:00:54;4.60;;;2.57;;
55312;SDS011;46892;45.668;11.756;2023-04-15T05:03:20;4.17;;;2.20;;
55312;SDS011;46892;45.668;11.756;2023-04-15T05:05:46;3.47;;;2.10;;
55312;SDS011;46892;45.668;11.756;2023-04-15T05:08:13;3.63;;;1.90;;
55312;SDS011;46892;45.668;11.756;2023-04-15T05:10:40;4.40;;;2.30;;
55312;SDS011;46892;45.668;11.756;2023-04-15T05:13:05;3.07;;;2.30;;
55312;SDS011;46892;45.668;11.756;2023-04-15T05:15:31;4.20;;;2.37;;
55312;SDS011;46892;45.668;11.756;2023-04-15T05:17:58;3.90;;;2.50;;
55312;SDS011;46892;45.668;11.756;2023-04-15T05:20:24;2.90;;;2.13;;
55312;SDS011;46892;45.668;11.756;2023-04-15T05:22:50;4.80;;;2.50;;
55312;SDS011;46892;45.668;11.756;2023-04-15T05:25:16;4.07;;;1.90;;
55312;SDS011;46892;45.668;11.756;2023-04-15T05:27:41;4.13;;;2.07;;
55312;SDS011;46892;45.668;11.756;2023-04-15T05:30:07;3.70;;;2.37;;
55312;SDS011;46892;45.668;11.756;2023-04-15T05:32:33;4.10;;;2.23;;
55312;SDS011;46892;45.668;11.756;2023-04-15T05:34:59;4.03;;;2.60;;
55312;SDS011;46892;45.668;11.756;2023-04-15T05:37:25;5.17;;;3.13;;
55312;SDS011;46892;45.668;11.756;2023-04-15T05:39:51;5.00;;;2.97;;
55312;SDS011;46892;45.668;11.756;2023-04-15T05:42:16;4.77;;;2.43;;
55312;SDS011;46892;45.668;11.756;2023-04-15T05:44:42;4.57;;;2.73;;
55312;SDS011;46892;45.668;11.756;2023-04-15T05:47:08;5.07;;;3.37;;
55312;SDS011;46892;45.668;11.756;2023-04-15T05:49:34;4.10;;;2.90;;
55312;SDS011;46892;45.668;11.756;2023-04-15T05:52:00;4.13;;;3.03;;
55312;SDS011;46892;45.668;11.756;2023-04-15T05:54:26;4.30;;;3.20;;
55312;SDS011;46892;45.668;11.756;2023-04-15T05:56:52;5.77;;;3.50;;
55312;SDS011;46892;45.668;11.756;2023-04-15T05:59:18;5.03;;;3.23;;
55312;SDS011;46892;45.668;11.756;2023-04-15T06:01:44;5.37;;;3.80;;
55312;SDS011;46892;45.668;11.756;2023-04-15T06:04:10;5.10;;;3.73;;
55312;SDS011;46892;45.668;11.756;2023-04-15T06:06:36;5.37;;;3.83;;
55312;SDS011;46892;45.668;11.756;2023-04-15T06:09:02;5.70;;;3.90;;
55312;SDS011;46892;45.668;11.756;2023-04-15T06:11:28;5.40;;;3.90;;
55312;SDS011;46892;45.668;11.756;2023-04-15T06:13:54;5.13;;;3.80;;
55312;SDS011;46892;45.668;11.756;2023-04-15T06:16:20;6.57;;;3.60;;
55312;SDS011;46892;45.668;11.756;2023-04-15T06:18:47;7.67;;;3.70;;
55312;SDS011;46892;45.668;11.756;2023-04-15T06:21:13;4.57;;;3.60;;
55312;SDS011;46892;45.668;11.756;2023-04-15T06:23:39;6.27;;;4.33;;
55312;SDS011;46892;45.668;11.756;2023-04-15T06:26:05;5.97;;;4.43;;
55312;SDS011;46892;45.668;11.756;2023-04-15T06:28:31;9.17;;;4.50;;
55312;SDS011;46892;45.668;11.756;2023-04-15T06:30:57;6.63;;;4.60;;
55312;SDS011;46892;45.668;11.756;2023-04-15T06:33:22;7.13;;;5.13;;
55312;SDS011;46892;45.668;11.756;2023-04-15T06:35:48;7.90;;;5.53;;
55312;SDS011;46892;45.668;11.756;2023-04-15T06:38:14;9.27;;;6.67;;
55312;SDS011;46892;45.668;11.756;2023-04-15T06:40:40;6.97;;;5.07;;
55312;SDS011;46892;45.668;11.756;2023-04-15T06:43:06;7.57;;;4.90;;
55312;SDS011;46892;45.668;11.756;2023-04-15T06:45:33;7.40;;;5.30;;
55312;SDS011;46892;45.668;11.756;2023-04-15T06:47:59;8.73;;;5.57;;
55312;SDS011;46892;45.668;11.756;2023-04-15T06:50:25;8.53;;;5.30;;
55312;SDS011;46892;45.668;11.756;2023-04-15T06:52:51;9.63;;;5.67;;
55312;SDS011;46892;45.668;11.756;2023-04-15T06:55:18;7.63;;;4.97;;
55312;SDS011;46892;45.668;11.756;2023-04-15T06:57:44;9.43;;;5.20;;
55312;SDS011;46892;45.668;11.756;2023-04-15T07:00:10;8.20;;;4.87;;
55312;SDS011;46892;45.668;11.756;2023-04-15T07:02:36;6.97;;;4.57;;
55312;SDS011;46892;45.668;11.756;2023-04-15T07:05:02;7.03;;;4.63;;
55312;SDS011;46892;45.668;11.756;2023-04-15T07:07:28;8.43;;;4.97;;
55312;SDS011;46892;45.668;11.756;2023-04-15T07:09:54;6.87;;;5.10;;
55312;SDS011;46892;45.668;11.756;2023-04-15T07:12:20;6.93;;;4.83;;
55312;SDS011;46892;45.668;11.756;2023-04-15T07:14:46;6.57;;;4.87;;
55312;SDS011;46892;45.668;11.756;2023-04-15T07:17:11;9.10;;;4.80;;
55312;SDS011;46892;45.668;11.756;2023-04-15T07:19:37;6.27;;;4.50;;
55312;SDS011;46892;45.668;11.756;2023-04-15T07:22:03;5.70;;;4.13;;
55312;SDS011;46892;45.668;11.756;2023-04-15T07:24:28;6.37;;;4.60;;
55312;SDS011;46892;45.668;11.756;2023-04-15T07:26:55;5.07;;;3.77;;
55312;SDS011;46892;45.668;11.756;2023-04-15T07:29:22;5.37;;;4.17;;
55312;SDS011;46892;45.668;11.756;2023-04-15T07:31:48;7.07;;;4.00;;
55312;SDS011;46892;45.668;11.756;2023-04-15T07:34:14;5.53;;;3.67;;
55312;SDS011;46892;45.668;11.756;2023-04-15T07:36:40;5.83;;;4.07;;
55312;SDS011;46892;45.668;11.756;2023-04-15T07:39:07;5.53;;;3.53;;
55312;SDS011;46892;45.668;11.756;2023-04-15T07:41:32;4.97;;;3.40;;
55312;SDS011;46892;45.668;11.756;2023-04-15T07:43:58;5.57;;;4.40;;
55312;SDS011;46892;45.668;11.756;2023-04-15T07:46:24;8.53;;;5.40;;
55312;SDS011;46892;45.668;11.756;2023-04-15T07:48:51;10.47;;;9.37;;
55312;SDS011;46892;45.668;11.756;2023-04-15T07:51:17;19.97;;;18.00;;
55312;SDS011;46892;45.668;11.756;2023-04-15T07:53:45;10.20;;;9.13;;
55312;SDS011;46892;45.668;11.756;2023-04-15T07:56:14;10.07;;;9.03;;
55312;SDS011;46892;45.668;11.756;2023-04-15T07:58:40;9.20;;;8.30;;
55312;SDS011;46892;45.668;11.756;2023-04-15T08:01:06;5.93;;;4.27;;
55312;SDS011;46892;45.668;11.756;2023-04-15T08:03:32;4.97;;;4.00;;
55312;SDS011;46892;45.668;11.756;2023-04-15T08:05:58;9.10;;;6.90;;
55312;SDS011;46892;45.668;11.756;2023-04-15T08:08:24;7.77;;;5.47;;
55312;SDS011;46892;45.668;11.756;2023-04-15T08:10:50;12.33;;;9.17;;
55312;SDS011;46892;45.668;11.756;2023-04-15T08:13:16;25.27;;;18.20;;
55312;SDS011;46892;45.668;11.756;2023-04-15T08:15:42;13.37;;;9.67;;
55312;SDS011;46892;45.668;11.756;2023-04-15T08:18:08;8.03;;;5.70;;
55312;SDS011;46892;45.668;11.756;2023-04-15T08:20:33;7.70;;;6.43;;
55312;SDS011;46892;45.668;11.756;2023-04-15T08:22:59;9.20;;;7.47;;
55312;SDS011;46892;45.668;11.756;2023-04-15T08:25:25;7.03;;;5.17;;
55312;SDS011;46892;45.668;11.756;2023-04-15T08:27:53;7.87;;;4.97;;
55312;SDS011;46892;45.668;11.756;2023-04-15T08:30:19;6.97;;;4.73;;
55312;SDS011;46892;45.668;11.756;2023-04-15T08:32:45;11.23;;;7.77;;
55312;SDS011;46892;45.668;11.756;2023-04-15T08:35:11;7.83;;;6.03;;
55312;SDS011;46892;45.668;11.756;2023-04-15T08:37:37;8.77;;;5.67;;
55312;SDS011;46892;45.668;11.756;2023-04-15T08:40:03;7.83;;;4.80;;
55312;SDS011;46892;45.668;11.756;2023-04-15T08:42:30;8.27;;;6.50;;
55312;SDS011;46892;45.668;11.756;2023-04-15T08:44:58;5.40;;;4.13;;
55312;SDS011;46892;45.668;11.756;2023-04-15T08:47:25;6.60;;;4.40;;
55312;SDS011;46892;45.668;11.756;2023-04-15T08:49:55;6.57;;;4.50;;
55312;SDS011;46892;45.668;11.756;2023-04-15T08:52:24;6.13;;;4.13;;
55312;SDS011;46892;45.668;11.756;2023-04-15T08:54:51;7.27;;;5.60;;
55312;SDS011;46892;45.668;11.756;2023-04-15T08:57:23;5.57;;;2.73;;
55312;SDS011;46892;45.668;11.756;2023-04-15T08:59:55;5.67;;;3.10;;
55312;SDS011;46892;45.668;11.756;2023-04-15T09:02:22;6.50;;;3.07;;
55312;SDS011;46892;45.668;11.756;2023-04-15T09:04:49;7.43;;;3.27;;
55312;SDS011;46892;45.668;11.756;2023-04-15T09:07:15;5.47;;;3.17;;
55312;SDS011;46892;45.668;11.756;2023-04-15T09:09:41;4.80;;;3.50;;
55312;SDS011;46892;45.668;11.756;2023-04-15T09:12:07;5.10;;;3.50;;
55312;SDS011;46892;45.668;11.756;2023-04-15T09:14:34;4.73;;;2.83;;
55312;SDS011;46892;45.668;11.756;2023-04-15T09:17:01;4.03;;;2.60;;
55312;SDS011;46892;45.668;11.756;2023-04-15T09:19:28;4.47;;;3.10;;
55312;SDS011;46892;45.668;11.756;2023-04-15T09:21:55;6.80;;;3.50;;
55312;SDS011;46892;45.668;11.756;2023-04-15T09:24:23;5.43;;;3.00;;
55312;SDS011;46892;45.668;11.756;2023-04-15T09:26:53;5.50;;;3.50;;
55312;SDS011;46892;45.668;11.756;2023-04-15T09:29:23;5.33;;;3.23;;
55312;SDS011;46892;45.668;11.756;2023-04-15T09:31:50;5.67;;;4.17;;
55312;SDS011;46892;45.668;11.756;2023-04-15T09:34:17;7.60;;;3.50;;
55312;SDS011;46892;45.668;11.756;2023-04-15T09:39:11;6.83;;;3.50;;
55312;SDS011;46892;45.668;11.756;2023-04-15T09:41:37;6.20;;;3.03;;
55312;SDS011;46892;45.668;11.756;2023-04-15T09:44:03;4.30;;;2.70;;
55312;SDS011;46892;45.668;11.756;2023-04-15T09:46:44;6.97;;;3.40;;
55312;SDS011;46892;45.668;11.756;2023-04-15T09:49:10;9.70;;;5.87;;
55312;SDS011;46892;45.668;11.756;2023-04-15T09:51:36;4.80;;;2.80;;
55312;SDS011;46892;45.668;11.756;2023-04-15T09:54:02;4.43;;;3.07;;
55312;SDS011;46892;45.668;11.756;2023-04-15T09:56:35;5.17;;;3.10;;
55312;SDS011;46892;45.668;11.756;2023-04-15T09:59:03;4.13;;;2.87;;
55312;SDS011;46892;45.668;11.756;2023-04-15T10:01:29;6.30;;;3.40;;
55312;SDS011;46892;45.668;11.756;2023-04-15T10:03:56;12.57;;;9.97;;
55312;SDS011;46892;45.668;11.756;2023-04-15T10:06:22;13.70;;;9.53;;
55312;SDS011;46892;45.668;11.756;2023-04-15T10:08:51;8.23;;;5.40;;
55312;SDS011;46892;45.668;11.756;2023-04-15T10:11:19;7.23;;;3.77;;
55312;SDS011;46892;45.668;11.756;2023-04-15T10:13:48;4.90;;;2.20;;
55312;SDS011;46892;45.668;11.756;2023-04-15T10:16:15;6.53;;;2.70;;
55312;SDS011;46892;45.668;11.756;2023-04-15T10:18:44;4.73;;;2.27;;
55312;SDS011;46892;45.668;11.756;2023-04-15T10:21:12;5.07;;;2.60;;
55312;SDS011;46892;45.668;11.756;2023-04-15T10:23:42;4.30;;;2.80;;
55312;SDS011;46892;45.668;11.756;2023-04-15T10:26:09;6.40;;;3.40;;
55312;SDS011;46892;45.668;11.756;2023-04-15T10:28:38;6.13;;;3.20;;
55312;SDS011;46892;45.668;11.756;2023-04-15T10:31:05;4.63;;;3.10;;
55312;SDS011;46892;45.668;11.756;2023-04-15T10:33:31;13.17;;;8.83;;
55312;SDS011;46892;45.668;11.756;2023-04-15T10:35:59;3.57;;;2.30;;
55312;SDS011;46892;45.668;11.756;2023-04-15T10:41:13;4.70;;;2.93;;
55312;SDS011;46892;45.668;11.756;2023-04-15T10:43:54;4.73;;;2.93;;
55312;SDS011;46892;45.668;11.756;2023-04-15T10:46:40;4.03;;;3.13;;
55312;SDS011;46892;45.668;11.756;2023-04-15T10:49:08;3.47;;;2.67;;
55312;SDS011;46892;45.668;11.756;2023-04-15T10:51:38;6.13;;;3.23;;
55312;SDS011;46892;45.668;11.756;2023-04-15T10:54:12;6.90;;;2.90;;
55312;SDS011;46892;45.668;11.756;2023-04-15T10:56:47;4.47;;;2.83;;
55312;SDS011;46892;45.668;11.756;2023-04-15T10:59:16;3.80;;;2.43;;
55312;SDS011;46892;45.668;11.756;2023-04-15T11:07:37;5.27;;;2.60;;
55312;SDS011;46892;45.668;11.756;2023-04-15T11:10:50;3.63;;;2.60;;
55312;SDS011;46892;45.668;11.756;2023-04-15T11:12:51;5.30;;;2.40;;
55312;SDS011;46892;45.668;11.756;2023-04-15T11:20:35;4.10;;;2.57;;
55312;SDS011;46892;45.668;11.756;2023-04-15T11:23:02;4.43;;;2.90;;
55312;SDS011;46892;45.668;11.756;2023-04-15T11:25:29;4.53;;;2.83;;
55312;SDS011;46892;45.668;11.756;2023-04-15T11:27:57;4.40;;;3.40;;
55312;SDS011;46892;45.668;11.756;2023-04-15T11:30:24;8.67;;;4.40;;
55312;SDS011;46892;45.668;11.756;2023-04-15T11:32:51;3.93;;;1.80;;
55312;SDS011;46892;45.668;11.756;2023-04-15T11:35:19;15.73;;;10.70;;
55312;SDS011;46892;45.668;11.756;2023-04-15T11:37:45;2.93;;;2.00;;
55312;SDS011;46892;45.668;11.756;2023-04-15T11:40:11;5.57;;;3.10;;
55312;SDS011;46892;45.668;11.756;2023-04-15T11:42:37;3.57;;;2.20;;
55312;SDS011;46892;45.668;11.756;2023-04-15T11:45:10;3.00;;;1.70;;
55312;SDS011;46892;45.668;11.756;2023-04-15T11:47:38;4.33;;;2.20;;
55312;SDS011;46892;45.668;11.756;2023-04-15T11:52:52;2.70;;;1.67;;
55312;SDS011;46892;45.668;11.756;2023-04-15T11:55:26;3.07;;;1.80;;
55312;SDS011;46892;45.668;11.756;2023-04-15T12:00:40;2.57;;;1.90;;
55312;SDS011;46892;45.668;11.756;2023-04-15T12:11:13;4.67;;;1.93;;
55312;SDS011;46892;45.668;11.756;2023-04-15T12:13:43;6.90;;;2.00;;
55312;SDS011;46892;45.668;11.756;2023-04-15T12:16:10;4.32;;;1.98;;
55312;SDS011;46892;45.668;11.756;2023-04-15T12:18:39;3.23;;;1.70;;
55312;SDS011;46892;45.668;11.756;2023-04-15T12:21:10;5.53;;;2.10;;
55312;SDS011;46892;45.668;11.756;2023-04-15T12:23:37;2.57;;;2.10;;
55312;SDS011;46892;45.668;11.756;2023-04-15T12:26:04;3.93;;;1.80;;
55312;SDS011;46892;45.668;11.756;2023-04-15T12:28:32;3.47;;;1.90;;
55312;SDS011;46892;45.668;11.756;2023-04-15T12:31:05;4.23;;;2.00;;
55312;SDS011;46892;45.668;11.756;2023-04-15T12:33:33;3.30;;;1.50;;
55312;SDS011;46892;45.668;11.756;2023-04-15T12:35:59;4.03;;;2.00;;
55312;SDS011;46892;45.668;11.756;2023-04-15T12:38:24;2.67;;;1.90;;
55312;SDS011;46892;45.668;11.756;2023-04-15T12:40:50;4.50;;;1.63;;
55312;SDS011;46892;45.668;11.756;2023-04-15T12:43:16;3.80;;;1.70;;
55312;SDS011;46892;45.668;11.756;2023-04-15T12:45:42;3.77;;;1.43;;
55312;SDS011;46892;45.668;11.756;2023-04-15T12:48:08;2.30;;;1.03;;
55312;SDS011;46892;45.668;11.756;2023-04-15T12:50:36;1.50;;;1.17;;
55312;SDS011;46892;45.668;11.756;2023-04-15T12:53:02;4.10;;;1.20;;
55312;SDS011;46892;45.668;11.756;2023-04-15T12:55:28;2.80;;;1.70;;
55312;SDS011;46892;45.668;11.756;2023-04-15T12:57:55;2.63;;;1.73;;
55312;SDS011;46892;45.668;11.756;2023-04-15T13:00:21;2.97;;;1.67;;
55312;SDS011;46892;45.668;11.756;2023-04-15T13:02:47;4.03;;;1.60;;
55312;SDS011;46892;45.668;11.756;2023-04-15T13:05:13;3.13;;;1.27;;
55312;SDS011;46892;45.668;11.756;2023-04-15T13:07:39;2.40;;;1.30;;
55312;SDS011;46892;45.668;11.756;2023-04-15T13:10:06;1.80;;;1.20;;
55312;SDS011;46892;45.668;11.756;2023-04-15T13:12:32;3.53;;;1.30;;
55312;SDS011;46892;45.668;11.756;2023-04-15T13:15:01;2.00;;;1.20;;
55312;SDS011;46892;45.668;11.756;2023-04-15T13:17:29;4.30;;;1.50;;
55312;SDS011;46892;45.668;11.756;2023-04-15T13:19:55;10.87;;;7.03;;
55312;SDS011;46892;45.668;11.756;2023-04-15T13:22:21;10.87;;;7.93;;
55312;SDS011;46892;45.668;11.756;2023-04-15T13:24:47;6.03;;;3.03;;
55312;SDS011;46892;45.668;11.756;2023-04-15T13:27:13;2.13;;;1.47;;
55312;SDS011;46892;45.668;11.756;2023-04-15T13:29:38;12.73;;;9.37;;
55312;SDS011;46892;45.668;11.756;2023-04-15T13:32:04;9.57;;;7.20;;
55312;SDS011;46892;45.668;11.756;2023-04-15T13:34:30;11.87;;;8.83;;
55312;SDS011;46892;45.668;11.756;2023-04-15T13:36:56;3.70;;;2.47;;
55312;SDS011;46892;45.668;11.756;2023-04-15T13:39:22;8.83;;;5.60;;
55312;SDS011;46892;45.668;11.756;2023-04-15T13:41:47;3.13;;;1.60;;
55312;SDS011;46892;45.668;11.756;2023-04-15T13:44:13;3.97;;;1.40;;
55312;SDS011;46892;45.668;11.756;2023-04-15T13:46:39;12.57;;;7.23;;
55312;SDS011;46892;45.668;11.756;2023-04-15T13:49:06;13.07;;;8.70;;
55312;SDS011;46892;45.668;11.756;2023-04-15T13:51:32;11.60;;;7.50;;
55312;SDS011;46892;45.668;11.756;2023-04-15T13:54:00;5.40;;;2.77;;
55312;SDS011;46892;45.668;11.756;2023-04-15T13:56:26;13.63;;;9.33;;
55312;SDS011;46892;45.668;11.756;2023-04-15T13:58:51;6.40;;;2.90;;
55312;SDS011;46892;45.668;11.756;2023-04-15T14:01:18;18.30;;;11.17;;
55312;SDS011;46892;45.668;11.756;2023-04-15T14:03:44;16.10;;;8.63;;
55312;SDS011;46892;45.668;11.756;2023-04-15T14:06:10;52.80;;;32.23;;
55312;SDS011;46892;45.668;11.756;2023-04-15T14:08:35;50.57;;;31.07;;
55312;SDS011;46892;45.668;11.756;2023-04-15T14:11:02;31.27;;;19.10;;
55312;SDS011;46892;45.668;11.756;2023-04-15T14:13:28;42.60;;;25.60;;
55312;SDS011;46892;45.668;11.756;2023-04-15T14:15:55;45.00;;;27.90;;
55312;SDS011;46892;45.668;11.756;2023-04-15T14:18:21;56.30;;;32.53;;
55312;SDS011;46892;45.668;11.756;2023-04-15T14:20:46;25.83;;;18.33;;
55312;SDS011;46892;45.668;11.756;2023-04-15T14:23:12;20.23;;;18.23;;
55312;SDS011;46892;45.668;11.756;2023-04-15T14:25:38;7.57;;;6.00;;
55312;SDS011;46892;45.668;11.756;2023-04-15T14:28:03;6.30;;;4.20;;
55312;SDS011;46892;45.668;11.756;2023-04-15T14:30:29;2.37;;;1.30;;
55312;SDS011;46892;45.668;11.756;2023-04-15T14:32:55;4.03;;;1.40;;
55312;SDS011;46892;45.668;11.756;2023-04-15T14:35:20;3.17;;;1.60;;
55312;SDS011;46892;45.668;11.756;2023-04-15T14:37:48;4.50;;;1.70;;
55312;SDS011;46892;45.668;11.756;2023-04-15T14:40:14;2.60;;;1.80;;
55312;SDS011;46892;45.668;11.756;2023-04-15T14:42:39;4.10;;;2.13;;
55312;SDS011;46892;45.668;11.756;2023-04-15T14:45:05;2.60;;;1.70;;
55312;SDS011;46892;45.668;11.756;2023-04-15T14:47:31;4.33;;;1.70;;
55312;SDS011;46892;45.668;11.756;2023-04-15T14:49:57;2.80;;;1.63;;
55312;SDS011;46892;45.668;11.756;2023-04-15T14:52:22;3.37;;;1.97;;
55312;SDS011;46892;45.668;11.756;2023-04-15T14:54:48;5.83;;;2.30;;
55312;SDS011;46892;45.668;11.756;2023-04-15T14:57:14;5.47;;;1.67;;
55312;SDS011;46892;45.668;11.756;2023-04-15T14:59:40;4.83;;;1.70;;